sensor_id;sensor_type;location;lat;lon;timestamp;temperature;humidity
47857;DHT22;33618;49.972;8.242;2023-02-22T00:01:41;6.70;99.90
47857;DHT22;33618;49.972;8.242;2023-02-22T00:04:17;6.60;99.90
47857;DHT22;33618;49.972;8.242;2023-02-22T00:06:47;6.60;99.90
47857;DHT22;33618;49.972;8.242;2023-02-22T00:09:15;6.50;99.90
47857;DHT22;33618;49.972;8.242;2023-02-22T00:11:47;6.50;99.90
47857;DHT22;33618;49.972;8.242;2023-02-22T00:14:15;6.50;99.90
47857;DHT22;33618;49.972;8.242;2023-02-22T00:16:46;6.50;99.90
47857;DHT22;33618;49.972;8.242;2023-02-22T00:19:13;6.40;99.90
47857;DHT22;33618;49.972;8.242;2023-02-22T00:21:40;6.40;99.90
47857;DHT22;33618;49.972;8.242;2023-02-22T00:24:07;6.40;99.90
47857;DHT22;33618;49.972;8.242;2023-02-22T00:26:50;6.40;99.90
47857;DHT22;33618;49.972;8.242;2023-02-22T00:29:17;6.20;99.90
47857;DHT22;33618;49.972;8.242;2023-02-22T00:31:44;6.20;99.90
47857;DHT22;33618;49.972;8.242;2023-02-22T00:34:12;6.20;99.90
47857;DHT22;33618;49.972;8.242;2023-02-22T00:36:47;6.20;99.90
47857;DHT22;33618;49.972;8.242;2023-02-22T00:39:14;6.20;99.90
47857;DHT22;33618;49.972;8.242;2023-02-22T00:41:42;6.10;99.90
47857;DHT22;33618;49.972;8.242;2023-02-22T00:44:09;6.00;99.90
47857;DHT22;33618;49.972;8.242;2023-02-22T00:46:36;6.00;99.90
47857;DHT22;33618;49.972;8.242;2023-02-22T00:49:03;5.90;99.90
47857;DHT22;33618;49.972;8.242;2023-02-22T00:51:30;5.90;99.90
47857;DHT22;33618;49.972;8.242;2023-02-22T00:53:59;5.90;99.90
47857;DHT22;33618;49.972;8.242;2023-02-22T00:56:26;5.90;99.90
47857;DHT22;33618;49.972;8.242;2023-02-22T00:58:54;5.80;99.90
47857;DHT22;33618;49.972;8.242;2023-02-22T01:01:21;5.80;99.90
47857;DHT22;33618;49.972;8.242;2023-02-22T01:03:50;5.70;99.90
47857;DHT22;33618;49.972;8.242;2023-02-22T01:06:17;5.70;99.90
47857;DHT22;33618;49.972;8.242;2023-02-22T01:08:45;5.70;99.90
47857;DHT22;33618;49.972;8.242;2023-02-22T01:11:14;5.60;99.90
47857;DHT22;33618;49.972;8.242;2023-02-22T01:13:42;5.70;99.90
47857;DHT22;33618;49.972;8.242;2023-02-22T01:16:11;5.60;99.90
47857;DHT22;33618;49.972;8.242;2023-02-22T01:18:38;5.60;99.90
47857;DHT22;33618;49.972;8.242;2023-02-22T01:21:05;5.60;99.90
47857;DHT22;33618;49.972;8.242;2023-02-22T01:23:32;5.60;99.90
47857;DHT22;33618;49.972;8.242;2023-02-22T01:25:59;5.60;99.90
47857;DHT22;33618;49.972;8.242;2023-02-22T01:28:26;5.60;99.90
47857;DHT22;33618;49.972;8.242;2023-02-22T01:30:54;5.60;99.90
47857;DHT22;33618;49.972;8.242;2023-02-22T01:33:22;5.60;99.90
47857;DHT22;33618;49.972;8.242;2023-02-22T01:35:50;5.60;99.90
47857;DHT22;33618;49.972;8.242;2023-02-22T01:38:17;5.50;99.90
47857;DHT22;33618;49.972;8.242;2023-02-22T01:40:47;5.60;99.90
47857;DHT22;33618;49.972;8.242;2023-02-22T01:43:27;5.50;99.90
47857;DHT22;33618;49.972;8.242;2023-02-22T01:46:15;5.50;99.90
47857;DHT22;33618;49.972;8.242;2023-02-22T01:48:59;5.40;99.90
47857;DHT22;33618;49.972;8.242;2023-02-22T01:51:30;5.40;99.90
47857;DHT22;33618;49.972;8.242;2023-02-22T01:54:00;5.40;99.90
47857;DHT22;33618;49.972;8.242;2023-02-22T01:56:30;5.40;99.90
47857;DHT22;33618;49.972;8.242;2023-02-22T01:59:04;5.30;99.90
47857;DHT22;33618;49.972;8.242;2023-02-22T02:01:34;5.30;99.90
47857;DHT22;33618;49.972;8.242;2023-02-22T02:04:05;5.20;99.90
47857;DHT22;33618;49.972;8.242;2023-02-22T02:06:34;5.30;99.90
47857;DHT22;33618;49.972;8.242;2023-02-22T03:20:14;4.60;99.90
47857;DHT22;33618;49.972;8.242;2023-02-22T03:22:56;4.60;99.90
47857;DHT22;33618;49.972;8.242;2023-02-22T03:25:29;4.60;99.90
47857;DHT22;33618;49.972;8.242;2023-02-22T03:28:03;4.60;99.90
47857;DHT22;33618;49.972;8.242;2023-02-22T03:30:38;4.50;99.90
47857;DHT22;33618;49.972;8.242;2023-02-22T03:33:10;4.50;99.90
47857;DHT22;33618;49.972;8.242;2023-02-22T03:35:44;4.50;99.90
47857;DHT22;33618;49.972;8.242;2023-02-22T03:38:16;4.50;99.90
47857;DHT22;33618;49.972;8.242;2023-02-22T03:40:48;4.50;99.90
47857;DHT22;33618;49.972;8.242;2023-02-22T03:43:22;4.40;99.90
47857;DHT22;33618;49.972;8.242;2023-02-22T03:45:51;4.40;99.90
47857;DHT22;33618;49.972;8.242;2023-02-22T03:48:44;4.40;99.90
47857;DHT22;33618;49.972;8.242;2023-02-22T03:51:12;4.40;99.90
47857;DHT22;33618;49.972;8.242;2023-02-22T03:53:43;4.40;99.90
47857;DHT22;33618;49.972;8.242;2023-02-22T03:59:42;4.30;99.90
47857;DHT22;33618;49.972;8.242;2023-02-22T04:02:09;4.40;99.90
47857;DHT22;33618;49.972;8.242;2023-02-22T04:04:46;4.40;99.90
47857;DHT22;33618;49.972;8.242;2023-02-22T04:07:14;4.30;99.90
47857;DHT22;33618;49.972;8.242;2023-02-22T04:09:41;4.20;99.90
47857;DHT22;33618;49.972;8.242;2023-02-22T04:12:08;4.20;99.90
47857;DHT22;33618;49.972;8.242;2023-02-22T04:14:35;4.10;99.90
47857;DHT22;33618;49.972;8.242;2023-02-22T04:17:02;4.20;99.90
47857;DHT22;33618;49.972;8.242;2023-02-22T04:19:29;4.10;99.90
47857;DHT22;33618;49.972;8.242;2023-02-22T04:21:56;4.10;99.90
47857;DHT22;33618;49.972;8.242;2023-02-22T04:24:23;4.10;99.90
47857;DHT22;33618;49.972;8.242;2023-02-22T04:26:50;4.00;99.90
47857;DHT22;33618;49.972;8.242;2023-02-22T04:29:17;4.10;99.90
47857;DHT22;33618;49.972;8.242;2023-02-22T04:31:44;4.00;99.90
47857;DHT22;33618;49.972;8.242;2023-02-22T04:34:10;4.00;99.90
47857;DHT22;33618;49.972;8.242;2023-02-22T04:36:37;4.00;99.90
47857;DHT22;33618;49.972;8.242;2023-02-22T04:39:04;4.00;99.90
47857;DHT22;33618;49.972;8.242;2023-02-22T04:41:31;3.90;99.90
47857;DHT22;33618;49.972;8.242;2023-02-22T04:44:00;3.90;99.90
47857;DHT22;33618;49.972;8.242;2023-02-22T04:46:27;3.90;99.90
47857;DHT22;33618;49.972;8.242;2023-02-22T04:48:54;3.80;99.90
47857;DHT22;33618;49.972;8.242;2023-02-22T04:51:21;3.90;99.90
47857;DHT22;33618;49.972;8.242;2023-02-22T04:53:47;3.90;99.90
47857;DHT22;33618;49.972;8.242;2023-02-22T04:56:17;3.80;99.90
47857;DHT22;33618;49.972;8.242;2023-02-22T04:58:44;3.90;99.90
47857;DHT22;33618;49.972;8.242;2023-02-22T05:01:11;3.80;99.90
47857;DHT22;33618;49.972;8.242;2023-02-22T05:03:38;3.70;99.90
47857;DHT22;33618;49.972;8.242;2023-02-22T05:06:05;3.80;99.90
47857;DHT22;33618;49.972;8.242;2023-02-22T05:08:33;3.70;99.90
47857;DHT22;33618;49.972;8.242;2023-02-22T05:11:00;3.70;99.90
47857;DHT22;33618;49.972;8.242;2023-02-22T05:13:27;3.70;99.90
47857;DHT22;33618;49.972;8.242;2023-02-22T05:15:53;3.80;99.90
47857;DHT22;33618;49.972;8.242;2023-02-22T05:18:21;3.80;99.90
47857;DHT22;33618;49.972;8.242;2023-02-22T05:20:47;3.80;99.90
47857;DHT22;33618;49.972;8.242;2023-02-22T05:23:14;3.80;99.90
47857;DHT22;33618;49.972;8.242;2023-02-22T05:25:41;3.70;99.90
47857;DHT22;33618;49.972;8.242;2023-02-22T05:28:12;3.70;99.90
47857;DHT22;33618;49.972;8.242;2023-02-22T05:30:40;3.80;99.90
47857;DHT22;33618;49.972;8.242;2023-02-22T05:33:08;3.70;99.90
47857;DHT22;33618;49.972;8.242;2023-02-22T05:35:35;3.80;99.90
47857;DHT22;33618;49.972;8.242;2023-02-22T05:38:05;3.70;99.90
47857;DHT22;33618;49.972;8.242;2023-02-22T05:40:33;3.70;99.90
47857;DHT22;33618;49.972;8.242;2023-02-22T05:43:00;3.70;99.90
47857;DHT22;33618;49.972;8.242;2023-02-22T05:45:28;3.50;99.90
47857;DHT22;33618;49.972;8.242;2023-02-22T05:47:55;3.50;99.90
47857;DHT22;33618;49.972;8.242;2023-02-22T05:50:23;3.50;99.90
47857;DHT22;33618;49.972;8.242;2023-02-22T05:52:51;3.50;99.90
47857;DHT22;33618;49.972;8.242;2023-02-22T05:55:20;3.40;99.90
47857;DHT22;33618;49.972;8.242;2023-02-22T05:57:48;3.40;99.90
47857;DHT22;33618;49.972;8.242;2023-02-22T06:00:28;3.40;99.90
47857;DHT22;33618;49.972;8.242;2023-02-22T06:29:31;3.50;99.90
47857;DHT22;33618;49.972;8.242;2023-02-22T06:31:58;3.50;99.90
47857;DHT22;33618;49.972;8.242;2023-02-22T06:34:26;3.50;99.90
47857;DHT22;33618;49.972;8.242;2023-02-22T06:36:52;3.50;99.90
47857;DHT22;33618;49.972;8.242;2023-02-22T06:39:19;3.60;99.90
47857;DHT22;33618;49.972;8.242;2023-02-22T06:41:47;3.60;99.90
47857;DHT22;33618;49.972;8.242;2023-02-22T06:44:14;3.70;99.90
47857;DHT22;33618;49.972;8.242;2023-02-22T06:46:49;3.70;99.90
47857;DHT22;33618;49.972;8.242;2023-02-22T06:49:18;3.80;99.90
47857;DHT22;33618;49.972;8.242;2023-02-22T06:51:45;3.80;99.90
47857;DHT22;33618;49.972;8.242;2023-02-22T06:54:13;3.90;99.90
47857;DHT22;33618;49.972;8.242;2023-02-22T06:56:40;3.90;99.90
47857;DHT22;33618;49.972;8.242;2023-02-22T06:59:07;4.00;99.90
47857;DHT22;33618;49.972;8.242;2023-02-22T07:01:34;4.10;99.90
47857;DHT22;33618;49.972;8.242;2023-02-22T07:04:01;4.20;99.90
47857;DHT22;33618;49.972;8.242;2023-02-22T07:06:28;4.20;99.90
47857;DHT22;33618;49.972;8.242;2023-02-22T07:08:55;4.30;99.90
47857;DHT22;33618;49.972;8.242;2023-02-22T07:11:22;4.50;99.90
47857;DHT22;33618;49.972;8.242;2023-02-22T07:13:49;4.60;99.90
47857;DHT22;33618;49.972;8.242;2023-02-22T07:16:16;4.70;99.90
47857;DHT22;33618;49.972;8.242;2023-02-22T07:18:43;4.80;99.90
47857;DHT22;33618;49.972;8.242;2023-02-22T07:21:10;4.90;99.90
47857;DHT22;33618;49.972;8.242;2023-02-22T07:23:37;4.90;99.90
47857;DHT22;33618;49.972;8.242;2023-02-22T07:26:04;5.00;99.90
47857;DHT22;33618;49.972;8.242;2023-02-22T07:28:31;5.10;99.90
47857;DHT22;33618;49.972;8.242;2023-02-22T07:30:58;5.10;99.90
47857;DHT22;33618;49.972;8.242;2023-02-22T07:33:27;5.10;99.90
47857;DHT22;33618;49.972;8.242;2023-02-22T07:35:54;5.20;99.90
47857;DHT22;33618;49.972;8.242;2023-02-22T07:38:21;5.20;99.90
47857;DHT22;33618;49.972;8.242;2023-02-22T07:40:48;5.30;99.90
47857;DHT22;33618;49.972;8.242;2023-02-22T07:43:22;5.50;99.90
47857;DHT22;33618;49.972;8.242;2023-02-22T07:45:52;5.60;99.90
47857;DHT22;33618;49.972;8.242;2023-02-22T07:48:22;5.70;99.90
47857;DHT22;33618;49.972;8.242;2023-02-22T07:50:49;5.70;99.90
47857;DHT22;33618;49.972;8.242;2023-02-22T07:53:19;5.80;99.90
47857;DHT22;33618;49.972;8.242;2023-02-22T07:55:46;6.00;99.90
47857;DHT22;33618;49.972;8.242;2023-02-22T07:58:19;6.00;99.90
47857;DHT22;33618;49.972;8.242;2023-02-22T08:00:47;6.10;99.90
47857;DHT22;33618;49.972;8.242;2023-02-22T08:03:16;6.30;99.90
47857;DHT22;33618;49.972;8.242;2023-02-22T08:05:46;6.50;99.90
47857;DHT22;33618;49.972;8.242;2023-02-22T08:08:14;6.60;99.90
47857;DHT22;33618;49.972;8.242;2023-02-22T08:10:46;6.70;99.90
47857;DHT22;33618;49.972;8.242;2023-02-22T08:13:14;6.90;99.90
47857;DHT22;33618;49.972;8.242;2023-02-22T08:15:41;6.90;99.90
47857;DHT22;33618;49.972;8.242;2023-02-22T08:18:13;7.00;99.90
47857;DHT22;33618;49.972;8.242;2023-02-22T08:20:42;7.10;99.90
47857;DHT22;33618;49.972;8.242;2023-02-22T08:23:11;7.20;99.90
47857;DHT22;33618;49.972;8.242;2023-02-22T08:25:38;7.40;99.90
47857;DHT22;33618;49.972;8.242;2023-02-22T08:28:08;7.50;99.90
47857;DHT22;33618;49.972;8.242;2023-02-22T08:30:36;7.70;99.90
47857;DHT22;33618;49.972;8.242;2023-02-22T08:33:06;7.90;99.90
47857;DHT22;33618;49.972;8.242;2023-02-22T08:35:33;8.00;99.90
47857;DHT22;33618;49.972;8.242;2023-02-22T08:38:04;8.10;99.90
47857;DHT22;33618;49.972;8.242;2023-02-22T08:40:34;8.30;99.90
47857;DHT22;33618;49.972;8.242;2023-02-22T08:43:02;8.40;99.90
47857;DHT22;33618;49.972;8.242;2023-02-22T08:45:29;8.50;99.90
47857;DHT22;33618;49.972;8.242;2023-02-22T08:47:57;8.60;99.90
47857;DHT22;33618;49.972;8.242;2023-02-22T08:50:27;8.50;99.90
47857;DHT22;33618;49.972;8.242;2023-02-22T08:52:57;8.70;99.90
47857;DHT22;33618;49.972;8.242;2023-02-22T08:55:27;8.80;99.90
47857;DHT22;33618;49.972;8.242;2023-02-22T08:57:56;8.80;99.90
47857;DHT22;33618;49.972;8.242;2023-02-22T09:00:23;8.90;99.90
47857;DHT22;33618;49.972;8.242;2023-02-22T09:02:55;9.10;99.90
47857;DHT22;33618;49.972;8.242;2023-02-22T09:05:22;9.30;99.90
47857;DHT22;33618;49.972;8.242;2023-02-22T09:07:49;9.20;99.90
47857;DHT22;33618;49.972;8.242;2023-02-22T09:10:22;9.30;99.90
47857;DHT22;33618;49.972;8.242;2023-02-22T09:12:53;9.40;99.90
47857;DHT22;33618;49.972;8.242;2023-02-22T09:15:24;9.50;99.90
47857;DHT22;33618;49.972;8.242;2023-02-22T09:17:51;9.50;99.90
47857;DHT22;33618;49.972;8.242;2023-02-22T09:20:20;9.50;99.90
47857;DHT22;33618;49.972;8.242;2023-02-22T09:22:48;9.30;99.90
47857;DHT22;33618;49.972;8.242;2023-02-22T09:25:16;9.30;99.90
47857;DHT22;33618;49.972;8.242;2023-02-22T09:27:47;9.30;99.90
47857;DHT22;33618;49.972;8.242;2023-02-22T09:30:17;9.40;99.90
47857;DHT22;33618;49.972;8.242;2023-02-22T09:32:45;9.50;99.90
47857;DHT22;33618;49.972;8.242;2023-02-22T09:35:12;9.50;99.90
47857;DHT22;33618;49.972;8.242;2023-02-22T09:37:39;9.50;99.90
47857;DHT22;33618;49.972;8.242;2023-02-22T09:40:16;9.60;99.90
47857;DHT22;33618;49.972;8.242;2023-02-22T09:48:18;9.70;99.90
47857;DHT22;33618;49.972;8.242;2023-02-22T09:50:49;9.60;99.90
47857;DHT22;33618;49.972;8.242;2023-02-22T09:53:44;9.50;99.90
47857;DHT22;33618;49.972;8.242;2023-02-22T09:56:15;9.50;99.90
47857;DHT22;33618;49.972;8.242;2023-02-22T09:58:50;9.60;99.90
47857;DHT22;33618;49.972;8.242;2023-02-22T10:01:44;9.70;99.90
47857;DHT22;33618;49.972;8.242;2023-02-22T10:04:33;9.70;99.90
47857;DHT22;33618;49.972;8.242;2023-02-22T10:07:20;9.80;99.90
47857;DHT22;33618;49.972;8.242;2023-02-22T10:09:53;9.90;99.90
47857;DHT22;33618;49.972;8.242;2023-02-22T10:12:53;9.70;99.90
47857;DHT22;33618;49.972;8.242;2023-02-22T10:21:06;10.20;99.90
47857;DHT22;33618;49.972;8.242;2023-02-22T10:26:33;10.60;99.90
47857;DHT22;33618;49.972;8.242;2023-02-22T10:31:39;11.00;99.90
47857;DHT22;33618;49.972;8.242;2023-02-22T10:34:15;11.10;99.90
47857;DHT22;33618;49.972;8.242;2023-02-22T10:36:46;11.40;99.90
47857;DHT22;33618;49.972;8.242;2023-02-22T10:39:31;11.60;99.90
47857;DHT22;33618;49.972;8.242;2023-02-22T10:42:02;11.70;99.90
47857;DHT22;33618;49.972;8.242;2023-02-22T10:44:35;11.90;99.90
47857;DHT22;33618;49.972;8.242;2023-02-22T10:47:09;12.30;99.90
47857;DHT22;33618;49.972;8.242;2023-02-22T10:49:41;12.70;99.90
47857;DHT22;33618;49.972;8.242;2023-02-22T10:52:18;13.00;99.90
47857;DHT22;33618;49.972;8.242;2023-02-22T10:54:49;13.20;99.90
47857;DHT22;33618;49.972;8.242;2023-02-22T10:57:21;13.30;99.50
47857;DHT22;33618;49.972;8.242;2023-02-22T10:59:49;13.20;99.10
47857;DHT22;33618;49.972;8.242;2023-02-22T11:02:31;13.20;98.80
47857;DHT22;33618;49.972;8.242;2023-02-22T11:05:00;13.00;98.20
47857;DHT22;33618;49.972;8.242;2023-02-22T11:07:30;12.80;99.50
47857;DHT22;33618;49.972;8.242;2023-02-22T11:12:30;12.80;99.80
47857;DHT22;33618;49.972;8.242;2023-02-22T11:17:46;13.20;98.30
47857;DHT22;33618;49.972;8.242;2023-02-22T11:20:25;13.40;98.00
47857;DHT22;33618;49.972;8.242;2023-02-22T11:22:57;13.40;97.70
47857;DHT22;33618;49.972;8.242;2023-02-22T11:25:36;13.30;97.50
47857;DHT22;33618;49.972;8.242;2023-02-22T11:28:26;12.90;97.30
47857;DHT22;33618;49.972;8.242;2023-02-22T11:31:07;13.20;96.60
47857;DHT22;33618;49.972;8.242;2023-02-22T11:33:34;13.50;96.40
47857;DHT22;33618;49.972;8.242;2023-02-22T11:36:04;13.70;95.90
47857;DHT22;33618;49.972;8.242;2023-02-22T11:38:37;13.90;95.50
47857;DHT22;33618;49.972;8.242;2023-02-22T11:41:19;14.20;95.20
47857;DHT22;33618;49.972;8.242;2023-02-22T11:43:49;14.70;94.80
47857;DHT22;33618;49.972;8.242;2023-02-22T11:46:19;14.80;93.70
47857;DHT22;33618;49.972;8.242;2023-02-22T11:49:10;14.80;93.40
47857;DHT22;33618;49.972;8.242;2023-02-22T11:55:22;14.90;92.90
47857;DHT22;33618;49.972;8.242;2023-02-22T12:19:43;15.90;91.50
47857;DHT22;33618;49.972;8.242;2023-02-22T12:25:17;16.30;91.00
47857;DHT22;33618;49.972;8.242;2023-02-22T12:27:52;16.80;90.40
47857;DHT22;33618;49.972;8.242;2023-02-22T12:30:30;17.20;89.80
47857;DHT22;33618;49.972;8.242;2023-02-22T12:33:10;17.00;89.50
47857;DHT22;33618;49.972;8.242;2023-02-22T12:35:41;16.70;88.90
47857;DHT22;33618;49.972;8.242;2023-02-22T12:38:41;16.30;90.00
47857;DHT22;33618;49.972;8.242;2023-02-22T12:41:41;16.20;89.80
47857;DHT22;33618;49.972;8.242;2023-02-22T12:44:15;15.80;90.10
47857;DHT22;33618;49.972;8.242;2023-02-22T12:46:47;15.80;90.40
47857;DHT22;33618;49.972;8.242;2023-02-22T12:49:27;15.90;90.40
47857;DHT22;33618;49.972;8.242;2023-02-22T12:52:06;15.30;90.90
47857;DHT22;33618;49.972;8.242;2023-02-22T12:54:57;15.20;91.20
47857;DHT22;33618;49.972;8.242;2023-02-22T13:02:59;15.00;91.50
47857;DHT22;33618;49.972;8.242;2023-02-22T13:05:33;15.10;91.70
47857;DHT22;33618;49.972;8.242;2023-02-22T13:08:26;15.20;91.60
47857;DHT22;33618;49.972;8.242;2023-02-22T13:14:09;15.80;91.00
47857;DHT22;33618;49.972;8.242;2023-02-22T13:17:40;16.00;90.90
47857;DHT22;33618;49.972;8.242;2023-02-22T13:20:12;16.00;90.90
47857;DHT22;33618;49.972;8.242;2023-02-22T13:22:47;16.00;90.80
47857;DHT22;33618;49.972;8.242;2023-02-22T13:28:01;15.40;91.60
47857;DHT22;33618;49.972;8.242;2023-02-22T13:30:42;15.40;91.60
47857;DHT22;33618;49.972;8.242;2023-02-22T13:38:52;15.70;91.50
47857;DHT22;33618;49.972;8.242;2023-02-22T13:46:51;15.50;91.50
47857;DHT22;33618;49.972;8.242;2023-02-22T13:52:13;15.10;92.00
47857;DHT22;33618;49.972;8.242;2023-02-22T13:54:49;15.10;92.30
47857;DHT22;33618;49.972;8.242;2023-02-22T13:57:27;15.30;92.40
47857;DHT22;33618;49.972;8.242;2023-02-22T14:00:18;15.40;92.20
47857;DHT22;33618;49.972;8.242;2023-02-22T14:03:05;15.20;92.60
47857;DHT22;33618;49.972;8.242;2023-02-22T14:10:58;15.70;92.30
47857;DHT22;33618;49.972;8.242;2023-02-22T14:13:31;15.50;92.00
47857;DHT22;33618;49.972;8.242;2023-02-22T14:18:37;15.30;92.90
47857;DHT22;33618;49.972;8.242;2023-02-22T14:21:11;15.70;92.60
47857;DHT22;33618;49.972;8.242;2023-02-22T14:23:55;15.90;92.10
47857;DHT22;33618;49.972;8.242;2023-02-22T14:26:34;15.60;92.60
47857;DHT22;33618;49.972;8.242;2023-02-22T14:34:40;16.40;91.90
47857;DHT22;33618;49.972;8.242;2023-02-22T14:37:24;16.40;91.40
47857;DHT22;33618;49.972;8.242;2023-02-22T14:42:48;16.50;91.20
47857;DHT22;33618;49.972;8.242;2023-02-22T14:45:31;16.90;90.70
47857;DHT22;33618;49.972;8.242;2023-02-22T14:48:22;17.00;90.60
47857;DHT22;33618;49.972;8.242;2023-02-22T14:50:58;17.00;90.70
47857;DHT22;33618;49.972;8.242;2023-02-22T14:53:58;16.90;90.60
47857;DHT22;33618;49.972;8.242;2023-02-22T14:56:41;16.90;90.60
47857;DHT22;33618;49.972;8.242;2023-02-22T14:59:25;16.90;90.50
47857;DHT22;33618;49.972;8.242;2023-02-22T15:02:09;17.10;90.60
47857;DHT22;33618;49.972;8.242;2023-02-22T15:04:38;17.20;90.30
47857;DHT22;33618;49.972;8.242;2023-02-22T15:07:28;17.10;90.10
47857;DHT22;33618;49.972;8.242;2023-02-22T15:10:38;17.00;90.50
47857;DHT22;33618;49.972;8.242;2023-02-22T15:15:44;17.30;90.20
47857;DHT22;33618;49.972;8.242;2023-02-22T15:18:42;17.10;90.20
47857;DHT22;33618;49.972;8.242;2023-02-22T15:21:12;17.30;90.00
47857;DHT22;33618;49.972;8.242;2023-02-22T15:23:47;17.00;90.10
47857;DHT22;33618;49.972;8.242;2023-02-22T15:26:38;16.90;90.20
47857;DHT22;33618;49.972;8.242;2023-02-22T15:29:48;16.50;90.40
47857;DHT22;33618;49.972;8.242;2023-02-22T15:32:30;16.10;90.70
47857;DHT22;33618;49.972;8.242;2023-02-22T15:35:18;16.00;91.10
47857;DHT22;33618;49.972;8.242;2023-02-22T15:37:46;15.80;91.30
47857;DHT22;33618;49.972;8.242;2023-02-22T15:40:19;15.30;91.80
47857;DHT22;33618;49.972;8.242;2023-02-22T15:42:50;15.10;92.50
47857;DHT22;33618;49.972;8.242;2023-02-22T15:45:25;14.90;92.70
47857;DHT22;33618;49.972;8.242;2023-02-22T15:47:54;14.90;93.00
47857;DHT22;33618;49.972;8.242;2023-02-22T15:50:30;14.70;93.50
47857;DHT22;33618;49.972;8.242;2023-02-22T15:53:07;14.60;93.90
47857;DHT22;33618;49.972;8.242;2023-02-22T15:55:38;14.50;94.10
47857;DHT22;33618;49.972;8.242;2023-02-22T16:01:16;14.40;94.50
47857;DHT22;33618;49.972;8.242;2023-02-22T16:06:31;14.20;95.00
47857;DHT22;33618;49.972;8.242;2023-02-22T16:09:10;14.00;95.40
47857;DHT22;33618;49.972;8.242;2023-02-22T16:11:43;13.90;95.80
47857;DHT22;33618;49.972;8.242;2023-02-22T16:17:33;13.70;96.50
47857;DHT22;33618;49.972;8.242;2023-02-22T16:22:40;13.40;97.20
47857;DHT22;33618;49.972;8.242;2023-02-22T16:25:13;13.30;97.90
47857;DHT22;33618;49.972;8.242;2023-02-22T16:27:47;13.20;98.40
47857;DHT22;33618;49.972;8.242;2023-02-22T16:32:55;12.90;98.90
47857;DHT22;33618;49.972;8.242;2023-02-22T16:35:27;12.80;99.30
47857;DHT22;33618;49.972;8.242;2023-02-22T16:38:05;12.70;99.60
47857;DHT22;33618;49.972;8.242;2023-02-22T16:40:54;12.60;99.90
47857;DHT22;33618;49.972;8.242;2023-02-22T16:43:24;12.40;99.90
47857;DHT22;33618;49.972;8.242;2023-02-22T16:45:51;12.30;99.90
47857;DHT22;33618;49.972;8.242;2023-02-22T16:48:21;12.10;99.90
47857;DHT22;33618;49.972;8.242;2023-02-22T16:50:51;11.90;99.90
47857;DHT22;33618;49.972;8.242;2023-02-22T16:53:22;11.80;99.90
47857;DHT22;33618;49.972;8.242;2023-02-22T16:55:51;11.70;99.90
47857;DHT22;33618;49.972;8.242;2023-02-22T16:58:24;11.60;99.90
47857;DHT22;33618;49.972;8.242;2023-02-22T17:00:56;11.60;99.90
47857;DHT22;33618;49.972;8.242;2023-02-22T17:03:24;11.60;99.90
47857;DHT22;33618;49.972;8.242;2023-02-22T17:05:52;11.50;99.90
47857;DHT22;33618;49.972;8.242;2023-02-22T17:08:19;11.30;99.90
47857;DHT22;33618;49.972;8.242;2023-02-22T17:10:46;11.20;99.90
47857;DHT22;33618;49.972;8.242;2023-02-22T17:13:23;11.10;99.90
47857;DHT22;33618;49.972;8.242;2023-02-22T17:15:53;11.20;99.90
47857;DHT22;33618;49.972;8.242;2023-02-22T17:18:22;11.10;99.90
47857;DHT22;33618;49.972;8.242;2023-02-22T17:20:51;11.00;99.90
47857;DHT22;33618;49.972;8.242;2023-02-22T17:23:19;11.00;99.90
47857;DHT22;33618;49.972;8.242;2023-02-22T17:25:52;10.90;99.90
47857;DHT22;33618;49.972;8.242;2023-02-22T17:28:21;10.90;99.90
47857;DHT22;33618;49.972;8.242;2023-02-22T17:30:51;10.80;99.90
47857;DHT22;33618;49.972;8.242;2023-02-22T17:33:23;10.80;99.90
47857;DHT22;33618;49.972;8.242;2023-02-22T17:35:57;10.70;99.90
47857;DHT22;33618;49.972;8.242;2023-02-22T17:38:25;10.60;99.90
47857;DHT22;33618;49.972;8.242;2023-02-22T17:40:55;10.60;99.90
47857;DHT22;33618;49.972;8.242;2023-02-22T17:43:23;10.60;99.90
47857;DHT22;33618;49.972;8.242;2023-02-22T17:45:51;10.60;99.90
47857;DHT22;33618;49.972;8.242;2023-02-22T17:48:19;10.50;99.90
47857;DHT22;33618;49.972;8.242;2023-02-22T17:50:50;10.40;99.90
47857;DHT22;33618;49.972;8.242;2023-02-22T17:53:17;10.40;99.90
47857;DHT22;33618;49.972;8.242;2023-02-22T17:55:47;10.40;99.90
47857;DHT22;33618;49.972;8.242;2023-02-22T17:58:15;10.40;99.90
47857;DHT22;33618;49.972;8.242;2023-02-22T18:00:45;10.40;99.90
47857;DHT22;33618;49.972;8.242;2023-02-22T18:03:15;10.40;99.90
47857;DHT22;33618;49.972;8.242;2023-02-22T18:05:49;10.30;99.90
47857;DHT22;33618;49.972;8.242;2023-02-22T18:08:16;10.30;99.90
47857;DHT22;33618;49.972;8.242;2023-02-22T18:10:44;10.40;99.90
47857;DHT22;33618;49.972;8.242;2023-02-22T18:13:13;10.20;99.90
47857;DHT22;33618;49.972;8.242;2023-02-22T18:15:42;10.20;99.90
47857;DHT22;33618;49.972;8.242;2023-02-22T18:18:11;10.20;99.90
47857;DHT22;33618;49.972;8.242;2023-02-22T18:20:41;10.20;99.90
47857;DHT22;33618;49.972;8.242;2023-02-22T18:23:17;10.20;99.90
47857;DHT22;33618;49.972;8.242;2023-02-22T18:25:46;10.20;99.90
47857;DHT22;33618;49.972;8.242;2023-02-22T18:28:35;10.20;99.90
47857;DHT22;33618;49.972;8.242;2023-02-22T18:31:11;10.20;99.90
47857;DHT22;33618;49.972;8.242;2023-02-22T18:33:45;10.10;99.90
47857;DHT22;33618;49.972;8.242;2023-02-22T18:36:13;10.00;99.90
47857;DHT22;33618;49.972;8.242;2023-02-22T18:38:42;10.00;99.90
47857;DHT22;33618;49.972;8.242;2023-02-22T18:41:12;10.00;99.90
47857;DHT22;33618;49.972;8.242;2023-02-22T18:43:39;9.90;99.90
47857;DHT22;33618;49.972;8.242;2023-02-22T18:46:09;9.90;99.90
47857;DHT22;33618;49.972;8.242;2023-02-22T18:48:37;9.90;99.90
47857;DHT22;33618;49.972;8.242;2023-02-22T18:51:10;9.90;99.90
47857;DHT22;33618;49.972;8.242;2023-02-22T18:53:39;9.90;99.90
47857;DHT22;33618;49.972;8.242;2023-02-22T18:56:08;9.80;99.90
47857;DHT22;33618;49.972;8.242;2023-02-22T18:58:37;9.80;99.90
47857;DHT22;33618;49.972;8.242;2023-02-22T19:01:06;9.80;99.90
47857;DHT22;33618;49.972;8.242;2023-02-22T19:03:34;9.80;99.90
47857;DHT22;33618;49.972;8.242;2023-02-22T19:06:06;9.80;99.90
47857;DHT22;33618;49.972;8.242;2023-02-22T19:08:40;9.70;99.90
47857;DHT22;33618;49.972;8.242;2023-02-22T19:11:19;9.70;99.90
47857;DHT22;33618;49.972;8.242;2023-02-22T19:13:50;9.70;99.90
47857;DHT22;33618;49.972;8.242;2023-02-22T19:16:18;9.60;99.90
47857;DHT22;33618;49.972;8.242;2023-02-22T19:18:47;9.60;99.90
47857;DHT22;33618;49.972;8.242;2023-02-22T19:21:15;9.60;99.90
47857;DHT22;33618;49.972;8.242;2023-02-22T19:23:43;9.50;99.90
47857;DHT22;33618;49.972;8.242;2023-02-22T19:26:19;9.50;99.90
47857;DHT22;33618;49.972;8.242;2023-02-22T19:28:47;9.50;99.90
47857;DHT22;33618;49.972;8.242;2023-02-22T19:33:46;9.30;99.90
47857;DHT22;33618;49.972;8.242;2023-02-22T19:36:13;9.30;99.90
47857;DHT22;33618;49.972;8.242;2023-02-22T19:38:42;9.30;99.90
47857;DHT22;33618;49.972;8.242;2023-02-22T19:41:12;9.10;99.90
47857;DHT22;33618;49.972;8.242;2023-02-22T19:43:46;9.10;99.90